sensor_id;sensor_type;location;lat;lon;timestamp;pressure;altitude;pressure_sealevel;temperature;humidity
64019;BME280;66942;52.138;5.216;2023-06-14T00:01:18;101589.0;;;25.95;33.76
64019;BME280;66942;52.138;5.216;2023-06-14T00:02:55;101592.0;;;26.04;33.39
64019;BME280;66942;52.138;5.216;2023-06-14T00:04:31;101589.0;;;25.8;33.72
64019;BME280;66942;52.138;5.216;2023-06-14T00:07:43;101596.0;;;25.74;34.03
64019;BME280;66942;52.138;5.216;2023-06-14T00:09:19;101593.0;;;25.67;33.97
64019;BME280;66942;52.138;5.216;2023-06-14T00:10:55;101593.0;;;25.63;34.01
64019;BME280;66942;52.138;5.216;2023-06-14T00:14:08;101592.0;;;25.54;34.1
64019;BME280;66942;52.138;5.216;2023-06-14T00:15:44;101593.0;;;25.61;34.04
64019;BME280;66942;52.138;5.216;2023-06-14T00:17:21;101590.0;;;25.55;34.04
64019;BME280;66942;52.138;5.216;2023-06-14T00:20:33;101595.0;;;25.47;34.42
64019;BME280;66942;52.138;5.216;2023-06-14T00:22:09;101596.0;;;25.5;33.86
64019;BME280;66942;52.138;5.216;2023-06-14T00:23:45;101600.0;;;25.41;34.39
64019;BME280;66942;52.138;5.216;2023-06-14T00:25:22;101598.0;;;25.38;34.53
64019;BME280;66942;52.138;5.216;2023-06-14T00:28:35;101599.0;;;25.3;34.56
64019;BME280;66942;52.138;5.216;2023-06-14T00:30:12;101598.0;;;25.21;34.89
64019;BME280;66942;52.138;5.216;2023-06-14T00:31:48;101600.0;;;25.27;34.51
64019;BME280;66942;52.138;5.216;2023-06-14T00:35:00;101601.0;;;25.19;34.54
64019;BME280;66942;52.138;5.216;2023-06-14T00:36:36;101597.0;;;25.14;34.5
64019;BME280;66942;52.138;5.216;2023-06-14T00:38:13;101601.0;;;25.04;34.67
64019;BME280;66942;52.138;5.216;2023-06-14T00:41:25;101598.0;;;25.0;34.89
64019;BME280;66942;52.138;5.216;2023-06-14T00:43:01;101599.0;;;24.89;35.28
64019;BME280;66942;52.138;5.216;2023-06-14T00:44:37;101598.0;;;24.93;35.14
64019;BME280;66942;52.138;5.216;2023-06-14T00:47:50;101599.0;;;24.91;35.0
64019;BME280;66942;52.138;5.216;2023-06-14T00:49:29;101600.0;;;24.81;35.39
64019;BME280;66942;52.138;5.216;2023-06-14T00:51:05;101600.0;;;24.77;35.39
64019;BME280;66942;52.138;5.216;2023-06-14T00:52:42;101602.0;;;24.72;35.49
64019;BME280;66942;52.138;5.216;2023-06-14T00:55:54;101598.0;;;24.71;35.31
64019;BME280;66942;52.138;5.216;2023-06-14T00:57:31;101599.0;;;24.66;35.46
64019;BME280;66942;52.138;5.216;2023-06-14T00:59:07;101598.0;;;24.69;35.5
64019;BME280;66942;52.138;5.216;2023-06-14T01:02:19;101600.0;;;24.5;35.67
64019;BME280;66942;52.138;5.216;2023-06-14T01:03:55;101600.0;;;24.47;35.85
64019;BME280;66942;52.138;5.216;2023-06-14T01:05:31;101598.0;;;24.45;35.71
64019;BME280;66942;52.138;5.216;2023-06-14T01:09:03;101599.0;;;24.42;35.96
64019;BME280;66942;52.138;5.216;2023-06-14T01:10:47;101599.0;;;24.24;36.35
64019;BME280;66942;52.138;5.216;2023-06-14T01:12:44;101602.0;;;24.21;36.29
64019;BME280;66942;52.138;5.216;2023-06-14T01:14:25;101602.0;;;24.21;36.15
64019;BME280;66942;52.138;5.216;2023-06-14T01:16:05;101601.0;;;24.3;36.04
64019;BME280;66942;52.138;5.216;2023-06-14T01:17:44;101599.0;;;24.19;36.19
64019;BME280;66942;52.138;5.216;2023-06-14T01:20:59;101600.0;;;24.08;36.42
64019;BME280;66942;52.138;5.216;2023-06-14T01:22:35;101599.0;;;24.14;36.33
64019;BME280;66942;52.138;5.216;2023-06-14T01:24:11;101600.0;;;24.23;36.11
64019;BME280;66942;52.138;5.216;2023-06-14T01:27:25;101598.0;;;24.08;36.12
64019;BME280;66942;52.138;5.216;2023-06-14T01:29:01;101596.0;;;24.02;36.67
64019;BME280;66942;52.138;5.216;2023-06-14T01:30:39;101595.0;;;24.01;36.46
64019;BME280;66942;52.138;5.216;2023-06-14T01:33:53;101595.0;;;23.94;36.85
64019;BME280;66942;52.138;5.216;2023-06-14T01:35:29;101593.0;;;23.85;36.68
64019;BME280;66942;52.138;5.216;2023-06-14T01:37:06;101600.0;;;23.78;36.96
64019;BME280;66942;52.138;5.216;2023-06-14T01:38:44;101600.0;;;23.7;36.86
64019;BME280;66942;52.138;5.216;2023-06-14T01:41:58;101601.0;;;23.66;37.12
64019;BME280;66942;52.138;5.216;2023-06-14T01:43:35;101600.0;;;23.73;36.67
64019;BME280;66942;52.138;5.216;2023-06-14T01:45:11;101601.0;;;23.6;36.85
64019;BME280;66942;52.138;5.216;2023-06-14T01:48:25;101602.0;;;23.78;36.72
64019;BME280;66942;52.138;5.216;2023-06-14T01:50:02;101598.0;;;23.65;36.72
64019;BME280;66942;52.138;5.216;2023-06-14T01:51:39;101600.0;;;23.59;36.71
64019;BME280;66942;52.138;5.216;2023-06-14T01:53:15;101599.0;;;23.74;36.56
64019;BME280;66942;52.138;5.216;2023-06-14T01:56:28;101599.0;;;23.75;36.58
64019;BME280;66942;52.138;5.216;2023-06-14T01:58:04;101599.0;;;23.73;36.53
64019;BME280;66942;52.138;5.216;2023-06-14T01:59:40;101599.0;;;23.59;36.92
64019;BME280;66942;52.138;5.216;2023-06-14T02:02:53;101599.0;;;23.48;37.17
64019;BME280;66942;52.138;5.216;2023-06-14T02:04:29;101597.0;;;23.44;36.96
64019;BME280;66942;52.138;5.216;2023-06-14T02:06:05;101595.0;;;23.37;37.51
64019;BME280;66942;52.138;5.216;2023-06-14T02:09:17;101594.0;;;23.38;37.22
64019;BME280;66942;52.138;5.216;2023-06-14T02:10:53;101595.0;;;23.54;36.79
64019;BME280;66942;52.138;5.216;2023-06-14T02:12:29;101599.0;;;23.39;37.03
64019;BME280;66942;52.138;5.216;2023-06-14T02:15:42;101597.0;;;23.38;37.22
64019;BME280;66942;52.138;5.216;2023-06-14T02:17:18;101592.0;;;23.39;37.24
64019;BME280;66942;52.138;5.216;2023-06-14T02:18:54;101591.0;;;23.3;37.67
64019;BME280;66942;52.138;5.216;2023-06-14T02:20:30;101591.0;;;23.3;37.21
64019;BME280;66942;52.138;5.216;2023-06-14T02:23:42;101588.0;;;23.3;37.24
64019;BME280;66942;52.138;5.216;2023-06-14T02:25:19;101593.0;;;23.25;37.39
64019;BME280;66942;52.138;5.216;2023-06-14T02:26:55;101592.0;;;23.25;37.74
64019;BME280;66942;52.138;5.216;2023-06-14T02:30:08;101592.0;;;23.24;37.47
64019;BME280;66942;52.138;5.216;2023-06-14T02:31:44;101596.0;;;23.28;37.33
64019;BME280;66942;52.138;5.216;2023-06-14T02:33:21;101593.0;;;23.35;37.17
64019;BME280;66942;52.138;5.216;2023-06-14T02:36:34;101594.0;;;23.38;37.0
64019;BME280;66942;52.138;5.216;2023-06-14T02:38:10;101596.0;;;23.42;36.71
64019;BME280;66942;52.138;5.216;2023-06-14T02:39:46;101603.0;;;23.28;36.92
64019;BME280;66942;52.138;5.216;2023-06-14T02:41:22;101601.0;;;23.21;37.12
64019;BME280;66942;52.138;5.216;2023-06-14T02:44:34;101597.0;;;23.12;36.75
64019;BME280;66942;52.138;5.216;2023-06-14T02:46:11;101600.0;;;23.14;37.24
64019;BME280;66942;52.138;5.216;2023-06-14T02:47:47;101600.0;;;23.31;36.74
64019;BME280;66942;52.138;5.216;2023-06-14T02:50:59;101600.0;;;23.37;36.49
64019;BME280;66942;52.138;5.216;2023-06-14T02:52:35;101605.0;;;23.21;36.9
64019;BME280;66942;52.138;5.216;2023-06-14T02:54:11;101605.0;;;23.25;36.71
64019;BME280;66942;52.138;5.216;2023-06-14T02:57:24;101605.0;;;23.17;36.71
64019;BME280;66942;52.138;5.216;2023-06-14T02:59:00;101605.0;;;23.26;36.49
64019;BME280;66942;52.138;5.216;2023-06-14T03:00:36;101606.0;;;23.05;36.92
64019;BME280;66942;52.138;5.216;2023-06-14T03:03:48;101614.0;;;23.25;36.42
64019;BME280;66942;52.138;5.216;2023-06-14T03:05:24;101613.0;;;23.18;36.56
64019;BME280;66942;52.138;5.216;2023-06-14T03:07:01;101613.0;;;23.22;36.24
64019;BME280;66942;52.138;5.216;2023-06-14T03:08:37;101613.0;;;23.0;36.74
64019;BME280;66942;52.138;5.216;2023-06-14T03:11:49;101620.0;;;22.97;36.68
64019;BME280;66942;52.138;5.216;2023-06-14T03:13:25;101617.0;;;23.04;36.58
64019;BME280;66942;52.138;5.216;2023-06-14T03:15:01;101621.0;;;23.1;36.32
64019;BME280;66942;52.138;5.216;2023-06-14T03:18:15;101621.0;;;23.03;36.1
64019;BME280;66942;52.138;5.216;2023-06-14T03:19:51;101625.0;;;22.98;36.46
64019;BME280;66942;52.138;5.216;2023-06-14T03:21:27;101623.0;;;22.94;36.72
64019;BME280;66942;52.138;5.216;2023-06-14T03:24:39;101630.0;;;22.78;37.03
64019;BME280;66942;52.138;5.216;2023-06-14T03:26:15;101635.0;;;22.66;37.35
64019;BME280;66942;52.138;5.216;2023-06-14T03:27:51;101634.0;;;22.65;37.58
64019;BME280;66942;52.138;5.216;2023-06-14T03:29:27;101637.0;;;22.69;37.11
64019;BME280;66942;52.138;5.216;2023-06-14T03:32:40;101634.0;;;22.62;37.36
64019;BME280;66942;52.138;5.216;2023-06-14T03:34:16;101639.0;;;22.59;37.54
64019;BME280;66942;52.138;5.216;2023-06-14T03:35:52;101635.0;;;22.57;36.94
64019;BME280;66942;52.138;5.216;2023-06-14T03:39:04;101638.0;;;22.7;37.1
64019;BME280;66942;52.138;5.216;2023-06-14T03:40:40;101641.0;;;22.71;37.0
64019;BME280;66942;52.138;5.216;2023-06-14T03:42:17;101640.0;;;22.58;37.68
64019;BME280;66942;52.138;5.216;2023-06-14T03:45:29;101642.0;;;22.53;37.65
64019;BME280;66942;52.138;5.216;2023-06-14T03:47:05;101648.0;;;22.48;37.68
64019;BME280;66942;52.138;5.216;2023-06-14T03:48:41;101645.0;;;22.53;37.87
64019;BME280;66942;52.138;5.216;2023-06-14T03:51:53;101650.0;;;22.65;37.44
64019;BME280;66942;52.138;5.216;2023-06-14T03:53:30;101652.0;;;22.49;38.04
64019;BME280;66942;52.138;5.216;2023-06-14T03:55:06;101652.0;;;22.54;37.81
64019;BME280;66942;52.138;5.216;2023-06-14T03:56:42;101651.0;;;22.53;37.74
64019;BME280;66942;52.138;5.216;2023-06-14T03:59:54;101652.0;;;22.42;38.18
64019;BME280;66942;52.138;5.216;2023-06-14T04:01:30;101655.0;;;22.39;38.42
64019;BME280;66942;52.138;5.216;2023-06-14T04:03:06;101655.0;;;22.39;38.53
64019;BME280;66942;52.138;5.216;2023-06-14T04:06:19;101657.0;;;22.42;38.35
64019;BME280;66942;52.138;5.216;2023-06-14T04:07:55;101659.0;;;22.46;38.46
64019;BME280;66942;52.138;5.216;2023-06-14T04:09:31;101665.0;;;22.41;38.54
64019;BME280;66942;52.138;5.216;2023-06-14T04:12:43;101665.0;;;22.5;38.71
64019;BME280;66942;52.138;5.216;2023-06-14T04:14:20;101672.0;;;22.54;38.58
64019;BME280;66942;52.138;5.216;2023-06-14T04:15:56;101665.0;;;22.58;38.04
64019;BME280;66942;52.138;5.216;2023-06-14T04:19:08;101669.0;;;22.58;38.43
64019;BME280;66942;52.138;5.216;2023-06-14T04:20:44;101670.0;;;22.54;38.53
64019;BME280;66942;52.138;5.216;2023-06-14T04:22:20;101674.0;;;22.57;38.14
64019;BME280;66942;52.138;5.216;2023-06-14T04:23:56;101672.0;;;22.7;38.36
64019;BME280;66942;52.138;5.216;2023-06-14T04:27:09;101672.0;;;22.74;38.24
64019;BME280;66942;52.138;5.216;2023-06-14T04:28:45;101677.0;;;22.81;38.12
64019;BME280;66942;52.138;5.216;2023-06-14T04:30:21;101676.0;;;22.79;38.11
64019;BME280;66942;52.138;5.216;2023-06-14T04:33:34;101680.0;;;22.93;37.28
64019;BME280;66942;52.138;5.216;2023-06-14T04:35:09;101677.0;;;23.06;36.99
64019;BME280;66942;52.138;5.216;2023-06-14T04:36:45;101676.0;;;23.05;37.53
64019;BME280;66942;52.138;5.216;2023-06-14T04:39:58;101680.0;;;23.06;37.43
64019;BME280;66942;52.138;5.216;2023-06-14T04:41:34;101680.0;;;23.2;37.03
64019;BME280;66942;52.138;5.216;2023-06-14T04:43:10;101675.0;;;23.31;36.19
64019;BME280;66942;52.138;5.216;2023-06-14T04:44:46;101680.0;;;23.33;36.31
64019;BME280;66942;52.138;5.216;2023-06-14T04:47:58;101683.0;;;23.3;36.6
64019;BME280;66942;52.138;5.216;2023-06-14T04:49:34;101683.0;;;23.49;36.4
64019;BME280;66942;52.138;5.216;2023-06-14T04:51:11;101687.0;;;23.56;36.46
64019;BME280;66942;52.138;5.216;2023-06-14T04:54:23;101687.0;;;23.65;35.64
64019;BME280;66942;52.138;5.216;2023-06-14T04:55:59;101686.0;;;23.79;35.44
64019;BME280;66942;52.138;5.216;2023-06-14T04:57:35;101683.0;;;23.89;35.61
64019;BME280;66942;52.138;5.216;2023-06-14T05:00:47;101686.0;;;23.95;35.17
64019;BME280;66942;52.138;5.216;2023-06-14T05:02:24;101688.0;;;24.13;35.26
64019;BME280;66942;52.138;5.216;2023-06-14T05:04:01;101686.0;;;24.11;34.96
64019;BME280;66942;52.138;5.216;2023-06-14T05:07:13;101686.0;;;24.13;34.9
64019;BME280;66942;52.138;5.216;2023-06-14T05:08:49;101691.0;;;24.29;34.78
64019;BME280;66942;52.138;5.216;2023-06-14T05:10:25;101689.0;;;24.37;34.93
64019;BME280;66942;52.138;5.216;2023-06-14T05:12:02;101690.0;;;24.53;34.19
64019;BME280;66942;52.138;5.216;2023-06-14T05:15:14;101693.0;;;24.58;34.53
64019;BME280;66942;52.138;5.216;2023-06-14T05:16:50;101694.0;;;24.79;33.71
64019;BME280;66942;52.138;5.216;2023-06-14T05:18:26;101693.0;;;24.89;33.68
64019;BME280;66942;52.138;5.216;2023-06-14T05:21:38;101697.0;;;25.09;33.65
64019;BME280;66942;52.138;5.216;2023-06-14T05:23:14;101699.0;;;25.24;33.6
64019;BME280;66942;52.138;5.216;2023-06-14T05:24:50;101695.0;;;25.44;33.32
64019;BME280;66942;52.138;5.216;2023-06-14T05:28:03;101699.0;;;25.55;32.85
64019;BME280;66942;52.138;5.216;2023-06-14T05:29:39;101700.0;;;25.62;32.64
64019;BME280;66942;52.138;5.216;2023-06-14T05:31:15;101698.0;;;25.79;32.17
64019;BME280;66942;52.138;5.216;2023-06-14T05:34:27;101697.0;;;25.94;32.97
64019;BME280;66942;52.138;5.216;2023-06-14T05:36:04;101699.0;;;26.05;32.89
64019;BME280;66942;52.138;5.216;2023-06-14T05:37:40;101694.0;;;26.14;32.57
64019;BME280;66942;52.138;5.216;2023-06-14T05:39:16;101695.0;;;26.24;32.0
64019;BME280;66942;52.138;5.216;2023-06-14T05:42:28;101693.0;;;26.22;31.85
64019;BME280;66942;52.138;5.216;2023-06-14T05:44:04;101692.0;;;26.29;32.64
64019;BME280;66942;52.138;5.216;2023-06-14T05:45:40;101701.0;;;26.36;32.11
64019;BME280;66942;52.138;5.216;2023-06-14T05:48:53;101705.0;;;26.41;31.73
64019;BME280;66942;52.138;5.216;2023-06-14T05:50:31;101700.0;;;26.37;31.19
64019;BME280;66942;52.138;5.216;2023-06-14T05:52:08;101703.0;;;26.47;31.48
64019;BME280;66942;52.138;5.216;2023-06-14T05:55:20;101703.0;;;26.36;31.28
64019;BME280;66942;52.138;5.216;2023-06-14T05:56:56;101709.0;;;26.65;31.29
64019;BME280;66942;52.138;5.216;2023-06-14T05:58:32;101707.0;;;26.59;31.05
64019;BME280;66942;52.138;5.216;2023-06-14T06:00:09;101711.0;;;26.64;30.9
64019;BME280;66942;52.138;5.216;2023-06-14T06:03:22;101714.0;;;26.73;31.25
64019;BME280;66942;52.138;5.216;2023-06-14T06:04:58;101715.0;;;26.93;30.69
64019;BME280;66942;52.138;5.216;2023-06-14T06:06:34;101716.0;;;26.88;30.91
64019;BME280;66942;52.138;5.216;2023-06-14T06:09:46;101716.0;;;27.01;30.44
64019;BME280;66942;52.138;5.216;2023-06-14T06:11:23;101719.0;;;26.97;30.72
64019;BME280;66942;52.138;5.216;2023-06-14T06:12:59;101719.0;;;27.26;30.15
64019;BME280;66942;52.138;5.216;2023-06-14T06:16:11;101718.0;;;27.34;29.7
64019;BME280;66942;52.138;5.216;2023-06-14T06:17:47;101723.0;;;27.43;29.21
64019;BME280;66942;52.138;5.216;2023-06-14T06:19:23;101724.0;;;27.52;30.02
64019;BME280;66942;52.138;5.216;2023-06-14T06:20:59;101727.0;;;27.61;29.18
64019;BME280;66942;52.138;5.216;2023-06-14T06:24:12;101721.0;;;27.84;28.75
64019;BME280;66942;52.138;5.216;2023-06-14T06:25:48;101731.0;;;27.73;28.69
64019;BME280;66942;52.138;5.216;2023-06-14T06:27:24;101726.0;;;28.09;28.9
64019;BME280;66942;52.138;5.216;2023-06-14T06:30:36;101725.0;;;27.89;28.26
64019;BME280;66942;52.138;5.216;2023-06-14T06:32:12;101727.0;;;28.07;28.28
64019;BME280;66942;52.138;5.216;2023-06-14T06:33:49;101727.0;;;28.18;28.36
64019;BME280;66942;52.138;5.216;2023-06-14T06:37:02;101727.0;;;28.07;27.93
64019;BME280;66942;52.138;5.216;2023-06-14T06:38:38;101730.0;;;27.72;28.06
64019;BME280;66942;52.138;5.216;2023-06-14T06:40:14;101733.0;;;28.15;27.63
64019;BME280;66942;52.138;5.216;2023-06-14T06:43:26;101737.0;;;27.87;27.83
64019;BME280;66942;52.138;5.216;2023-06-14T06:45:03;101736.0;;;28.19;27.48
64019;BME280;66942;52.138;5.216;2023-06-14T06:46:40;101737.0;;;28.15;27.5
64019;BME280;66942;52.138;5.216;2023-06-14T06:48:16;101741.0;;;28.1;27.59
64019;BME280;66942;52.138;5.216;2023-06-14T06:51:28;101743.0;;;28.22;27.61
64019;BME280;66942;52.138;5.216;2023-06-14T06:53:04;101749.0;;;28.47;27.34
64019;BME280;66942;52.138;5.216;2023-06-14T06:54:40;101750.0;;;28.63;27.71
64019;BME280;66942;52.138;5.216;2023-06-14T06:57:52;101746.0;;;28.35;27.86
64019;BME280;66942;52.138;5.216;2023-06-14T06:59:29;101758.0;;;28.37;27.45
64019;BME280;66942;52.138;5.216;2023-06-14T07:01:05;101758.0;;;28.51;27.03
64019;BME280;66942;52.138;5.216;2023-06-14T07:04:17;101752.0;;;28.72;26.56
64019;BME280;66942;52.138;5.216;2023-06-14T07:05:53;101757.0;;;28.53;27.11
64019;BME280;66942;52.138;5.216;2023-06-14T07:07:29;101758.0;;;28.83;26.72
64019;BME280;66942;52.138;5.216;2023-06-14T07:10:42;101759.0;;;28.83;26.52
64019;BME280;66942;52.138;5.216;2023-06-14T07:12:18;101755.0;;;28.76;26.37
64019;BME280;66942;52.138;5.216;2023-06-14T07:13:54;101760.0;;;29.14;26.43
64019;BME280;66942;52.138;5.216;2023-06-14T07:15:30;101756.0;;;29.39;26.2
64019;BME280;66942;52.138;5.216;2023-06-14T07:18:42;101761.0;;;29.51;25.87
64019;BME280;66942;52.138;5.216;2023-06-14T07:20:19;101759.0;;;29.81;25.93
64019;BME280;66942;52.138;5.216;2023-06-14T07:21:55;101758.0;;;29.82;25.7
64019;BME280;66942;52.138;5.216;2023-06-14T07:25:08;101763.0;;;29.78;25.51
64019;BME280;66942;52.138;5.216;2023-06-14T07:26:44;101761.0;;;29.92;25.57
64019;BME280;66942;52.138;5.216;2023-06-14T07:28:20;101764.0;;;29.94;25.45
64019;BME280;66942;52.138;5.216;2023-06-14T07:31:32;101769.0;;;30.14;24.93
64019;BME280;66942;52.138;5.216;2023-06-14T07:33:08;101773.0;;;30.2;24.56
64019;BME280;66942;52.138;5.216;2023-06-14T07:34:45;101767.0;;;30.0;24.88
64019;BME280;66942;52.138;5.216;2023-06-14T07:36:21;101771.0;;;30.22;24.44
64019;BME280;66942;52.138;5.216;2023-06-14T07:39:34;101772.0;;;30.47;24.42
64019;BME280;66942;52.138;5.216;2023-06-14T07:41:10;101773.0;;;30.8;24.37
64019;BME280;66942;52.138;5.216;2023-06-14T07:42:46;101775.0;;;30.8;24.17
64019;BME280;66942;52.138;5.216;2023-06-14T07:45:59;101780.0;;;31.13;24.08
64019;BME280;66942;52.138;5.216;2023-06-14T07:47:35;101780.0;;;31.18;23.99
64019;BME280;66942;52.138;5.216;2023-06-14T07:49:11;101781.0;;;31.37;22.85
64019;BME280;66942;52.138;5.216;2023-06-14T07:52:23;101789.0;;;31.63;23.14
64019;BME280;66942;52.138;5.216;2023-06-14T07:53:59;101786.0;;;31.7;22.02
64019;BME280;66942;52.138;5.216;2023-06-14T07:55:35;101783.0;;;31.85;21.88
64019;BME280;66942;52.138;5.216;2023-06-14T07:58:47;101785.0;;;32.03;21.71
64019;BME280;66942;52.138;5.216;2023-06-14T08:00:24;101786.0;;;32.04;21.49
64019;BME280;66942;52.138;5.216;2023-06-14T08:02:00;101787.0;;;32.93;21.68
64019;BME280;66942;52.138;5.216;2023-06-14T08:03:36;101795.0;;;33.0;20.95
64019;BME280;66942;52.138;5.216;2023-06-14T08:06:49;101798.0;;;33.21;21.11
64019;BME280;66942;52.138;5.216;2023-06-14T08:08:25;101794.0;;;33.56;20.76
64019;BME280;66942;52.138;5.216;2023-06-14T08:10:02;101792.0;;;33.89;20.36
64019;BME280;66942;52.138;5.216;2023-06-14T08:13:14;101791.0;;;33.97;20.11
64019;BME280;66942;52.138;5.216;2023-06-14T08:14:50;101794.0;;;33.61;19.78
64019;BME280;66942;52.138;5.216;2023-06-14T08:16:26;101799.0;;;33.53;19.38
64019;BME280;66942;52.138;5.216;2023-06-14T08:19:38;101802.0;;;33.78;19.59
64019;BME280;66942;52.138;5.216;2023-06-14T08:21:14;101796.0;;;33.81;19.5
64019;BME280;66942;52.138;5.216;2023-06-14T08:22:50;101795.0;;;33.56;19.12
64019;BME280;66942;52.138;5.216;2023-06-14T08:24:26;101793.0;;;33.71;19.43
64019;BME280;66942;52.138;5.216;2023-06-14T08:27:40;101790.0;;;33.92;19.91
64019;BME280;66942;52.138;5.216;2023-06-14T08:29:16;101790.0;;;33.9;19.95
64019;BME280;66942;52.138;5.216;2023-06-14T08:30:52;101787.0;;;33.68;20.5
64019;BME280;66942;52.138;5.216;2023-06-14T08:34:04;101787.0;;;33.64;19.89
64019;BME280;66942;52.138;5.216;2023-06-14T08:35:40;101790.0;;;33.96;19.11
64019;BME280;66942;52.138;5.216;2023-06-14T08:37:17;101792.0;;;33.74;18.91
64019;BME280;66942;52.138;5.216;2023-06-14T08:40:30;101787.0;;;34.01;19.18
64019;BME280;66942;52.138;5.216;2023-06-14T08:42:08;101788.0;;;33.67;19.39
64019;BME280;66942;52.138;5.216;2023-06-14T08:43:45;101792.0;;;33.57;19.0
64019;BME280;66942;52.138;5.216;2023-06-14T08:45:22;101793.0;;;33.69;18.95
64019;BME280;66942;52.138;5.216;2023-06-14T08:48:39;101791.0;;;33.35;19.04
64019;BME280;66942;52.138;5.216;2023-06-14T08:50:15;101787.0;;;33.42;19.34
64019;BME280;66942;52.138;5.216;2023-06-14T08:51:56;101785.0;;;33.69;19.47
64019;BME280;66942;52.138;5.216;2023-06-14T08:55:13;101783.0;;;33.57;19.31
64019;BME280;66942;52.138;5.216;2023-06-14T08:56:50;101783.0;;;33.64;19.11
64019;BME280;66942;52.138;5.216;2023-06-14T08:58:27;101780.0;;;33.57;19.25
64019;BME280;66942;52.138;5.216;2023-06-14T09:00:05;101781.0;;;33.92;19.04
64019;BME280;66942;52.138;5.216;2023-06-14T09:03:18;101785.0;;;34.12;18.64
64019;BME280;66942;52.138;5.216;2023-06-14T09:04:54;101783.0;;;33.61;18.09
64019;BME280;66942;52.138;5.216;2023-06-14T09:06:30;101785.0;;;34.24;18.61
64019;BME280;66942;52.138;5.216;2023-06-14T09:09:42;101787.0;;;34.31;18.5
64019;BME280;66942;52.138;5.216;2023-06-14T09:11:19;101790.0;;;34.4;18.0
64019;BME280;66942;52.138;5.216;2023-06-14T09:12:55;101796.0;;;33.74;17.97
64019;BME280;66942;52.138;5.216;2023-06-14T09:16:09;101791.0;;;33.42;18.0
64019;BME280;66942;52.138;5.216;2023-06-14T09:17:45;101788.0;;;33.75;17.73
64019;BME280;66942;52.138;5.216;2023-06-14T09:19:23;101795.0;;;33.71;17.7
64019;BME280;66942;52.138;5.216;2023-06-14T09:20:59;101797.0;;;33.81;18.0
64019;BME280;66942;52.138;5.216;2023-06-14T09:24:14;101793.0;;;34.11;18.0
64019;BME280;66942;52.138;5.216;2023-06-14T09:25:50;101795.0;;;33.99;17.59
64019;BME280;66942;52.138;5.216;2023-06-14T09:27:26;101791.0;;;33.71;17.97
64019;BME280;66942;52.138;5.216;2023-06-14T09:30:41;101787.0;;;33.85;18.02
64019;BME280;66942;52.138;5.216;2023-06-14T09:32:17;101787.0;;;34.11;18.03
64019;BME280;66942;52.138;5.216;2023-06-14T09:33:54;101786.0;;;33.96;17.93
64019;BME280;66942;52.138;5.216;2023-06-14T09:37:07;101787.0;;;33.76;18.87
64019;BME280;66942;52.138;5.216;2023-06-14T09:38:51;101796.0;;;33.94;18.13
64019;BME280;66942;52.138;5.216;2023-06-14T09:40:28;101785.0;;;34.01;18.02
64019;BME280;66942;52.138;5.216;2023-06-14T09:42:16;101791.0;;;34.17;18.18
64019;BME280;66942;52.138;5.216;2023-06-14T09:45:29;101793.0;;;34.21;17.91
64019;BME280;66942;52.138;5.216;2023-06-14T09:47:06;101797.0;;;34.18;17.5
64019;BME280;66942;52.138;5.216;2023-06-14T09:48:42;101791.0;;;34.31;17.2
64019;BME280;66942;52.138;5.216;2023-06-14T09:50:18;101791.0;;;34.32;17.03
64019;BME280;66942;52.138;5.216;2023-06-14T09:53:35;101794.0;;;34.57;17.66
64019;BME280;66942;52.138;5.216;2023-06-14T09:55:12;101793.0;;;34.46;16.81
64019;BME280;66942;52.138;5.216;2023-06-14T09:56:51;101787.0;;;34.22;17.02
64019;BME280;66942;52.138;5.216;2023-06-14T10:00:07;101787.0;;;34.22;16.53
64019;BME280;66942;52.138;5.216;2023-06-14T10:01:44;101796.0;;;33.96;16.84
64019;BME280;66942;52.138;5.216;2023-06-14T10:03:25;101787.0;;;34.21;17.06
64019;BME280;66942;52.138;5.216;2023-06-14T10:05:05;101787.0;;;34.53;16.78
64019;BME280;66942;52.138;5.216;2023-06-14T10:08:24;101792.0;;;34.28;16.79
64019;BME280;66942;52.138;5.216;2023-06-14T10:10:03;101789.0;;;34.14;16.8
64019;BME280;66942;52.138;5.216;2023-06-14T10:11:40;101794.0;;;34.25;16.56
64019;BME280;66942;52.138;5.216;2023-06-14T10:13:16;101796.0;;;34.31;16.3
64019;BME280;66942;52.138;5.216;2023-06-14T10:16:33;101785.0;;;34.17;16.77
64019;BME280;66942;52.138;5.216;2023-06-14T10:18:18;101790.0;;;33.79;16.84
64019;BME280;66942;52.138;5.216;2023-06-14T10:20:10;101785.0;;;33.86;17.29
64019;BME280;66942;52.138;5.216;2023-06-14T10:21:57;101781.0;;;34.05;16.91
64019;BME280;66942;52.138;5.216;2023-06-14T10:25:33;101789.0;;;33.61;16.93
64019;BME280;66942;52.138;5.216;2023-06-14T10:27:13;101791.0;;;33.68;17.21
64019;BME280;66942;52.138;5.216;2023-06-14T10:28:59;101784.0;;;34.1;17.09
64019;BME280;66942;52.138;5.216;2023-06-14T10:30:35;101782.0;;;34.35;17.0
64019;BME280;66942;52.138;5.216;2023-06-14T10:32:11;101781.0;;;34.4;17.3
64019;BME280;66942;52.138;5.216;2023-06-14T10:35:26;101780.0;;;33.87;16.93
64019;BME280;66942;52.138;5.216;2023-06-14T10:37:04;101778.0;;;34.21;17.09
64019;BME280;66942;52.138;5.216;2023-06-14T10:38:41;101780.0;;;34.37;17.06
64019;BME280;66942;52.138;5.216;2023-06-14T10:42:06;101778.0;;;34.37;16.84
64019;BME280;66942;52.138;5.216;2023-06-14T10:43:43;101781.0;;;34.39;16.86
64019;BME280;66942;52.138;5.216;2023-06-14T10:45:19;101780.0;;;34.35;17.13
64019;BME280;66942;52.138;5.216;2023-06-14T10:46:58;101774.0;;;34.4;16.96
64019;BME280;66942;52.138;5.216;2023-06-14T10:50:16;101780.0;;;34.51;17.02
64019;BME280;66942;52.138;5.216;2023-06-14T10:51:53;101787.0;;;34.78;16.86
64019;BME280;66942;52.138;5.216;2023-06-14T10:53:39;101777.0;;;34.61;16.5
64019;BME280;66942;52.138;5.216;2023-06-14T10:55:16;101786.0;;;34.49;18.32
64019;BME280;66942;52.138;5.216;2023-06-14T10:58:29;101778.0;;;34.71;17.81
64019;BME280;66942;52.138;5.216;2023-06-14T11:00:07;101780.0;;;34.65;17.16
64019;BME280;66942;52.138;5.216;2023-06-14T11:01:54;101781.0;;;34.75;17.09
64019;BME280;66942;52.138;5.216;2023-06-14T11:03:50;101774.0;;;35.03;17.11
64019;BME280;66942;52.138;5.216;2023-06-14T11:07:15;101780.0;;;35.1;16.64